Archival Weather

Chicago O'Hare International

Chicago, Illinois (KORD)

Report from: Saturday, December 31, 2022 10:51 PM CST
Current time: Monday, March 4, 2024 5:40 PM CST

Current weather – Weather history – Daily summaries
Weather forecast

Temperature2.8°C (37.0°F)
Dew point-0.6°C (30.9°F)
Winds Calm
Visibility7 mi. (11.3 km)
Clouds Ceiling: Overcast 7,000 ft. (2,134 m)
Altimeter29.88 in.Hg (1012 mB)
Relative humidity78 %
Density altitude-1,360 ft. (-415 m)
Sea-level pressure101.2 kPa (1012 mB, 29.89 in.Hg)
Remarks Automated weather observing station with precipitation discriminator
Flight conditions Visual Meteorological Conditions
Raw dataKORD 010451Z 00000KT 7SM OVC070 03/M01 A2988 RMK AO2 SLP123 T00281006
An error has occurred. This application may no longer respond until reloaded. Reload 🗙